sensor_id;sensor_type;location;lat;lon;timestamp;temperature;humidity
15916;DHT22;8057;47.830;-3.870;2023-12-20T00:02:58;9.50;99.90
15916;DHT22;8057;47.830;-3.870;2023-12-20T00:07:26;9.40;99.90
15916;DHT22;8057;47.830;-3.870;2023-12-20T00:11:54;9.40;99.90
15916;DHT22;8057;47.830;-3.870;2023-12-20T00:16:23;9.40;99.90
15916;DHT22;8057;47.830;-3.870;2023-12-20T00:20:51;9.30;99.90
15916;DHT22;8057;47.830;-3.870;2023-12-20T00:25:18;9.30;99.90
15916;DHT22;8057;47.830;-3.870;2023-12-20T00:29:46;9.20;99.90
15916;DHT22;8057;47.830;-3.870;2023-12-20T00:34:17;9.00;99.90
15916;DHT22;8057;47.830;-3.870;2023-12-20T00:38:45;9.00;99.90
15916;DHT22;8057;47.830;-3.870;2023-12-20T00:43:12;8.90;99.90
15916;DHT22;8057;47.830;-3.870;2023-12-20T00:47:40;8.90;99.90
15916;DHT22;8057;47.830;-3.870;2023-12-20T00:52:10;8.90;99.90
15916;DHT22;8057;47.830;-3.870;2023-12-20T00:56:38;8.80;99.90
15916;DHT22;8057;47.830;-3.870;2023-12-20T01:01:06;8.80;99.90
15916;DHT22;8057;47.830;-3.870;2023-12-20T01:05:33;8.80;99.90
15916;DHT22;8057;47.830;-3.870;2023-12-20T01:10:03;8.90;99.90
15916;DHT22;8057;47.830;-3.870;2023-12-20T01:14:31;9.00;99.90
15916;DHT22;8057;47.830;-3.870;2023-12-20T01:18:59;9.10;99.90
15916;DHT22;8057;47.830;-3.870;2023-12-20T01:23:26;9.20;99.90
15916;DHT22;8057;47.830;-3.870;2023-12-20T01:27:55;9.20;99.90
15916;DHT22;8057;47.830;-3.870;2023-12-20T01:32:23;9.20;99.90
15916;DHT22;8057;47.830;-3.870;2023-12-20T01:36:51;9.20;99.90
15916;DHT22;8057;47.830;-3.870;2023-12-20T01:41:18;9.20;99.90
15916;DHT22;8057;47.830;-3.870;2023-12-20T01:45:48;9.10;99.90
15916;DHT22;8057;47.830;-3.870;2023-12-20T01:50:17;9.00;99.90
15916;DHT22;8057;47.830;-3.870;2023-12-20T01:54:44;9.00;99.90
15916;DHT22;8057;47.830;-3.870;2023-12-20T01:59:13;8.90;99.90
15916;DHT22;8057;47.830;-3.870;2023-12-20T02:03:42;8.90;99.90
15916;DHT22;8057;47.830;-3.870;2023-12-20T02:08:10;8.80;99.90
15916;DHT22;8057;47.830;-3.870;2023-12-20T02:12:37;8.80;99.90
15916;DHT22;8057;47.830;-3.870;2023-12-20T02:17:05;8.80;99.90
15916;DHT22;8057;47.830;-3.870;2023-12-20T02:21:34;8.70;99.90
15916;DHT22;8057;47.830;-3.870;2023-12-20T02:26:03;8.70;99.90
15916;DHT22;8057;47.830;-3.870;2023-12-20T02:30:32;8.70;99.90
15916;DHT22;8057;47.830;-3.870;2023-12-20T02:35:00;8.80;99.90
15916;DHT22;8057;47.830;-3.870;2023-12-20T02:39:29;8.80;99.90
15916;DHT22;8057;47.830;-3.870;2023-12-20T02:43:57;8.80;99.90
15916;DHT22;8057;47.830;-3.870;2023-12-20T02:48:25;8.80;99.90
15916;DHT22;8057;47.830;-3.870;2023-12-20T02:52:53;8.70;99.90
15916;DHT22;8057;47.830;-3.870;2023-12-20T02:57:22;8.70;99.90
15916;DHT22;8057;47.830;-3.870;2023-12-20T03:01:49;8.70;99.90
15916;DHT22;8057;47.830;-3.870;2023-12-20T03:06:18;8.70;99.90
15916;DHT22;8057;47.830;-3.870;2023-12-20T03:10:46;8.70;99.90
15916;DHT22;8057;47.830;-3.870;2023-12-20T03:15:15;8.60;99.90
15916;DHT22;8057;47.830;-3.870;2023-12-20T03:19:43;8.60;99.90
15916;DHT22;8057;47.830;-3.870;2023-12-20T03:24:11;8.60;99.90
15916;DHT22;8057;47.830;-3.870;2023-12-20T03:28:38;8.50;99.90
15916;DHT22;8057;47.830;-3.870;2023-12-20T03:33:08;8.50;99.90
15916;DHT22;8057;47.830;-3.870;2023-12-20T03:37:36;8.40;99.90
15916;DHT22;8057;47.830;-3.870;2023-12-20T03:42:04;8.30;99.90
15916;DHT22;8057;47.830;-3.870;2023-12-20T03:46:31;8.20;99.90
15916;DHT22;8057;47.830;-3.870;2023-12-20T03:51:01;8.10;99.90
15916;DHT22;8057;47.830;-3.870;2023-12-20T03:55:28;8.10;99.90
15916;DHT22;8057;47.830;-3.870;2023-12-20T03:59:56;8.10;99.90
15916;DHT22;8057;47.830;-3.870;2023-12-20T04:04:24;8.20;99.90
15916;DHT22;8057;47.830;-3.870;2023-12-20T04:08:53;8.30;99.90
15916;DHT22;8057;47.830;-3.870;2023-12-20T04:13:21;8.40;99.90
15916;DHT22;8057;47.830;-3.870;2023-12-20T04:17:49;8.60;99.90
15916;DHT22;8057;47.830;-3.870;2023-12-20T04:22:17;8.60;99.90
15916;DHT22;8057;47.830;-3.870;2023-12-20T04:26:47;8.60;99.90
15916;DHT22;8057;47.830;-3.870;2023-12-20T04:31:14;8.60;99.90
15916;DHT22;8057;47.830;-3.870;2023-12-20T04:35:42;8.60;99.90
15916;DHT22;8057;47.830;-3.870;2023-12-20T04:40:12;8.60;99.90
15916;DHT22;8057;47.830;-3.870;2023-12-20T04:44:41;8.60;99.90
15916;DHT22;8057;47.830;-3.870;2023-12-20T04:49:09;8.50;99.90
15916;DHT22;8057;47.830;-3.870;2023-12-20T04:53:38;8.50;99.90
15916;DHT22;8057;47.830;-3.870;2023-12-20T04:58:06;8.40;99.90
15916;DHT22;8057;47.830;-3.870;2023-12-20T05:02:35;8.50;99.90
15916;DHT22;8057;47.830;-3.870;2023-12-20T05:07:03;8.50;99.90
15916;DHT22;8057;47.830;-3.870;2023-12-20T05:11:31;8.50;99.90
15916;DHT22;8057;47.830;-3.870;2023-12-20T05:15:59;8.50;99.90
15916;DHT22;8057;47.830;-3.870;2023-12-20T05:20:28;8.40;99.90
15916;DHT22;8057;47.830;-3.870;2023-12-20T05:24:56;8.40;99.90
15916;DHT22;8057;47.830;-3.870;2023-12-20T05:29:24;8.30;99.90
15916;DHT22;8057;47.830;-3.870;2023-12-20T05:33:51;8.30;99.90
15916;DHT22;8057;47.830;-3.870;2023-12-20T05:38:21;8.20;99.90
15916;DHT22;8057;47.830;-3.870;2023-12-20T05:42:48;8.20;99.90
15916;DHT22;8057;47.830;-3.870;2023-12-20T05:47:16;8.10;99.90
15916;DHT22;8057;47.830;-3.870;2023-12-20T05:51:43;8.20;99.90
15916;DHT22;8057;47.830;-3.870;2023-12-20T05:56:12;8.20;99.90
15916;DHT22;8057;47.830;-3.870;2023-12-20T06:00:40;8.20;99.90
15916;DHT22;8057;47.830;-3.870;2023-12-20T06:05:08;8.10;99.90
15916;DHT22;8057;47.830;-3.870;2023-12-20T06:09:36;8.10;99.90
15916;DHT22;8057;47.830;-3.870;2023-12-20T06:14:06;8.10;99.90
15916;DHT22;8057;47.830;-3.870;2023-12-20T06:18:33;8.00;99.90
15916;DHT22;8057;47.830;-3.870;2023-12-20T06:23:03;8.00;99.90
15916;DHT22;8057;47.830;-3.870;2023-12-20T06:27:31;8.00;99.90
15916;DHT22;8057;47.830;-3.870;2023-12-20T06:32:00;7.90;99.90
15916;DHT22;8057;47.830;-3.870;2023-12-20T06:36:27;7.90;99.90
15916;DHT22;8057;47.830;-3.870;2023-12-20T06:40:55;7.90;99.90
15916;DHT22;8057;47.830;-3.870;2023-12-20T06:45:24;7.80;99.90
15916;DHT22;8057;47.830;-3.870;2023-12-20T06:49:53;7.80;99.90
15916;DHT22;8057;47.830;-3.870;2023-12-20T06:54:21;7.80;99.90
15916;DHT22;8057;47.830;-3.870;2023-12-20T06:58:49;7.80;99.90
15916;DHT22;8057;47.830;-3.870;2023-12-20T07:03:17;7.90;99.90
15916;DHT22;8057;47.830;-3.870;2023-12-20T07:07:46;8.00;99.90
15916;DHT22;8057;47.830;-3.870;2023-12-20T07:12:14;8.20;99.90
15916;DHT22;8057;47.830;-3.870;2023-12-20T07:16:42;8.50;99.90
15916;DHT22;8057;47.830;-3.870;2023-12-20T07:21:09;8.60;99.90
15916;DHT22;8057;47.830;-3.870;2023-12-20T07:25:39;8.70;99.90
15916;DHT22;8057;47.830;-3.870;2023-12-20T07:30:08;8.70;99.90
15916;DHT22;8057;47.830;-3.870;2023-12-20T07:34:36;8.70;99.90
15916;DHT22;8057;47.830;-3.870;2023-12-20T07:39:04;8.60;99.90
15916;DHT22;8057;47.830;-3.870;2023-12-20T07:43:33;8.70;99.90
15916;DHT22;8057;47.830;-3.870;2023-12-20T07:48:00;8.70;99.90
15916;DHT22;8057;47.830;-3.870;2023-12-20T07:52:28;8.70;99.90
15916;DHT22;8057;47.830;-3.870;2023-12-20T07:56:57;8.60;99.90
15916;DHT22;8057;47.830;-3.870;2023-12-20T08:01:26;8.60;99.90
15916;DHT22;8057;47.830;-3.870;2023-12-20T08:05:54;8.70;99.90
15916;DHT22;8057;47.830;-3.870;2023-12-20T08:10:23;8.70;99.90
15916;DHT22;8057;47.830;-3.870;2023-12-20T08:14:51;8.60;99.90
15916;DHT22;8057;47.830;-3.870;2023-12-20T08:19:20;8.70;99.90
15916;DHT22;8057;47.830;-3.870;2023-12-20T08:23:48;8.70;99.90
15916;DHT22;8057;47.830;-3.870;2023-12-20T08:28:16;8.80;99.90
15916;DHT22;8057;47.830;-3.870;2023-12-20T08:32:43;8.90;99.90
15916;DHT22;8057;47.830;-3.870;2023-12-20T08:37:12;9.00;99.90
15916;DHT22;8057;47.830;-3.870;2023-12-20T08:41:41;9.10;99.90
15916;DHT22;8057;47.830;-3.870;2023-12-20T08:46:09;9.30;99.90
15916;DHT22;8057;47.830;-3.870;2023-12-20T08:50:37;9.40;99.90
15916;DHT22;8057;47.830;-3.870;2023-12-20T08:55:08;9.50;99.90
15916;DHT22;8057;47.830;-3.870;2023-12-20T08:59:35;9.60;99.90
15916;DHT22;8057;47.830;-3.870;2023-12-20T09:04:03;9.90;99.90
15916;DHT22;8057;47.830;-3.870;2023-12-20T09:08:32;10.10;99.90
15916;DHT22;8057;47.830;-3.870;2023-12-20T09:13:02;10.20;99.90
15916;DHT22;8057;47.830;-3.870;2023-12-20T09:17:30;10.20;99.90
15916;DHT22;8057;47.830;-3.870;2023-12-20T09:21:58;10.20;99.90
15916;DHT22;8057;47.830;-3.870;2023-12-20T09:26:26;10.10;99.90
15916;DHT22;8057;47.830;-3.870;2023-12-20T09:30:56;10.20;99.90
15916;DHT22;8057;47.830;-3.870;2023-12-20T09:35:23;10.30;99.90
15916;DHT22;8057;47.830;-3.870;2023-12-20T09:39:52;10.30;99.90
15916;DHT22;8057;47.830;-3.870;2023-12-20T09:44:20;10.40;99.90
15916;DHT22;8057;47.830;-3.870;2023-12-20T09:48:52;10.40;99.90
15916;DHT22;8057;47.830;-3.870;2023-12-20T09:53:20;10.60;99.90
15916;DHT22;8057;47.830;-3.870;2023-12-20T09:57:50;10.90;99.90
15916;DHT22;8057;47.830;-3.870;2023-12-20T10:02:22;11.20;99.90
15916;DHT22;8057;47.830;-3.870;2023-12-20T10:06:54;11.30;99.90
15916;DHT22;8057;47.830;-3.870;2023-12-20T10:11:23;11.30;99.90
15916;DHT22;8057;47.830;-3.870;2023-12-20T10:15:50;11.50;99.90
15916;DHT22;8057;47.830;-3.870;2023-12-20T10:20:18;11.70;99.90
15916;DHT22;8057;47.830;-3.870;2023-12-20T10:24:47;11.70;99.90
15916;DHT22;8057;47.830;-3.870;2023-12-20T10:29:15;11.70;99.90
15916;DHT22;8057;47.830;-3.870;2023-12-20T10:33:44;11.70;99.90
15916;DHT22;8057;47.830;-3.870;2023-12-20T10:38:12;11.90;99.90
15916;DHT22;8057;47.830;-3.870;2023-12-20T10:42:44;12.30;99.90
15916;DHT22;8057;47.830;-3.870;2023-12-20T10:47:13;12.30;99.90
15916;DHT22;8057;47.830;-3.870;2023-12-20T10:51:41;12.20;99.90
15916;DHT22;8057;47.830;-3.870;2023-12-20T10:56:15;12.10;99.90
15916;DHT22;8057;47.830;-3.870;2023-12-20T11:00:45;12.10;99.90
15916;DHT22;8057;47.830;-3.870;2023-12-20T11:05:23;12.20;99.90
15916;DHT22;8057;47.830;-3.870;2023-12-20T11:09:57;12.20;99.90
15916;DHT22;8057;47.830;-3.870;2023-12-20T11:14:32;12.10;99.90
15916;DHT22;8057;47.830;-3.870;2023-12-20T11:19:06;12.00;99.90
15916;DHT22;8057;47.830;-3.870;2023-12-20T11:23:35;12.00;99.90
15916;DHT22;8057;47.830;-3.870;2023-12-20T11:28:09;12.10;99.90
15916;DHT22;8057;47.830;-3.870;2023-12-20T11:32:37;12.20;99.90
15916;DHT22;8057;47.830;-3.870;2023-12-20T11:37:10;12.20;99.90
15916;DHT22;8057;47.830;-3.870;2023-12-20T11:41:38;12.30;99.90
15916;DHT22;8057;47.830;-3.870;2023-12-20T11:46:06;12.30;99.90
15916;DHT22;8057;47.830;-3.870;2023-12-20T11:50:34;12.30;99.90
15916;DHT22;8057;47.830;-3.870;2023-12-20T11:55:05;12.20;99.90
15916;DHT22;8057;47.830;-3.870;2023-12-20T11:59:33;12.20;99.90
15916;DHT22;8057;47.830;-3.870;2023-12-20T12:04:04;12.20;99.90
15916;DHT22;8057;47.830;-3.870;2023-12-20T12:08:32;12.30;99.90
15916;DHT22;8057;47.830;-3.870;2023-12-20T12:13:01;12.50;99.90
15916;DHT22;8057;47.830;-3.870;2023-12-20T12:17:29;12.60;99.90
15916;DHT22;8057;47.830;-3.870;2023-12-20T12:22:07;12.90;99.90
15916;DHT22;8057;47.830;-3.870;2023-12-20T12:26:39;12.90;99.90
15916;DHT22;8057;47.830;-3.870;2023-12-20T12:31:12;12.90;99.90
15916;DHT22;8057;47.830;-3.870;2023-12-20T12:35:40;12.90;99.90
15916;DHT22;8057;47.830;-3.870;2023-12-20T12:40:10;12.80;99.90
15916;DHT22;8057;47.830;-3.870;2023-12-20T12:44:39;12.70;99.90
15916;DHT22;8057;47.830;-3.870;2023-12-20T12:49:08;12.80;99.90
15916;DHT22;8057;47.830;-3.870;2023-12-20T12:53:36;12.80;99.90
15916;DHT22;8057;47.830;-3.870;2023-12-20T12:58:04;12.90;99.90
15916;DHT22;8057;47.830;-3.870;2023-12-20T13:02:32;12.90;99.90
15916;DHT22;8057;47.830;-3.870;2023-12-20T13:07:01;13.00;99.90
15916;DHT22;8057;47.830;-3.870;2023-12-20T13:11:30;13.00;99.90
15916;DHT22;8057;47.830;-3.870;2023-12-20T13:15:58;13.00;99.90
15916;DHT22;8057;47.830;-3.870;2023-12-20T13:20:27;13.00;99.90
15916;DHT22;8057;47.830;-3.870;2023-12-20T13:24:56;12.90;99.90
15916;DHT22;8057;47.830;-3.870;2023-12-20T13:29:24;12.80;99.90
15916;DHT22;8057;47.830;-3.870;2023-12-20T13:33:54;12.80;99.90
15916;DHT22;8057;47.830;-3.870;2023-12-20T13:38:21;12.80;99.90
15916;DHT22;8057;47.830;-3.870;2023-12-20T13:42:51;12.80;99.90
15916;DHT22;8057;47.830;-3.870;2023-12-20T13:47:19;12.80;99.90
15916;DHT22;8057;47.830;-3.870;2023-12-20T13:51:49;12.90;99.90
15916;DHT22;8057;47.830;-3.870;2023-12-20T13:56:17;12.90;99.90
15916;DHT22;8057;47.830;-3.870;2023-12-20T14:00:47;13.00;99.90
15916;DHT22;8057;47.830;-3.870;2023-12-20T14:05:15;12.80;99.90
15916;DHT22;8057;47.830;-3.870;2023-12-20T14:09:44;12.70;99.90
15916;DHT22;8057;47.830;-3.870;2023-12-20T14:14:12;12.80;99.90
15916;DHT22;8057;47.830;-3.870;2023-12-20T14:18:42;12.80;99.90
15916;DHT22;8057;47.830;-3.870;2023-12-20T14:23:09;12.90;99.90
15916;DHT22;8057;47.830;-3.870;2023-12-20T14:27:37;12.90;99.90
15916;DHT22;8057;47.830;-3.870;2023-12-20T14:32:06;12.80;99.90
15916;DHT22;8057;47.830;-3.870;2023-12-20T14:36:35;12.80;99.90
15916;DHT22;8057;47.830;-3.870;2023-12-20T14:41:04;12.70;99.90
15916;DHT22;8057;47.830;-3.870;2023-12-20T14:45:34;12.50;99.90
15916;DHT22;8057;47.830;-3.870;2023-12-20T14:50:03;12.40;99.90
15916;DHT22;8057;47.830;-3.870;2023-12-20T14:54:33;12.30;99.90
15916;DHT22;8057;47.830;-3.870;2023-12-20T14:59:01;12.40;99.90
15916;DHT22;8057;47.830;-3.870;2023-12-20T15:03:29;12.30;99.90
15916;DHT22;8057;47.830;-3.870;2023-12-20T15:07:56;12.30;99.90
15916;DHT22;8057;47.830;-3.870;2023-12-20T15:12:26;12.20;99.90
15916;DHT22;8057;47.830;-3.870;2023-12-20T15:16:53;12.20;99.90
15916;DHT22;8057;47.830;-3.870;2023-12-20T15:21:22;12.10;99.90
15916;DHT22;8057;47.830;-3.870;2023-12-20T15:25:57;12.10;99.90
15916;DHT22;8057;47.830;-3.870;2023-12-20T15:30:27;12.00;99.90
15916;DHT22;8057;47.830;-3.870;2023-12-20T15:34:56;12.10;99.90
15916;DHT22;8057;47.830;-3.870;2023-12-20T15:39:24;12.00;99.90
15916;DHT22;8057;47.830;-3.870;2023-12-20T15:43:52;11.90;99.90
15916;DHT22;8057;47.830;-3.870;2023-12-20T15:48:21;11.90;99.90
15916;DHT22;8057;47.830;-3.870;2023-12-20T15:52:54;11.90;99.90
15916;DHT22;8057;47.830;-3.870;2023-12-20T15:57:22;12.00;99.90
15916;DHT22;8057;47.830;-3.870;2023-12-20T16:01:50;11.90;99.90
15916;DHT22;8057;47.830;-3.870;2023-12-20T16:06:21;11.90;99.90
15916;DHT22;8057;47.830;-3.870;2023-12-20T16:10:48;11.90;99.90
15916;DHT22;8057;47.830;-3.870;2023-12-20T16:15:16;11.80;99.90
15916;DHT22;8057;47.830;-3.870;2023-12-20T16:19:45;11.80;99.90
15916;DHT22;8057;47.830;-3.870;2023-12-20T16:24:14;11.70;99.90
15916;DHT22;8057;47.830;-3.870;2023-12-20T16:28:41;11.60;99.90
15916;DHT22;8057;47.830;-3.870;2023-12-20T16:33:10;11.60;99.90
15916;DHT22;8057;47.830;-3.870;2023-12-20T16:37:37;11.60;99.90
15916;DHT22;8057;47.830;-3.870;2023-12-20T16:42:07;11.50;99.90
15916;DHT22;8057;47.830;-3.870;2023-12-20T16:46:34;11.60;99.90
15916;DHT22;8057;47.830;-3.870;2023-12-20T16:51:02;11.70;99.90
15916;DHT22;8057;47.830;-3.870;2023-12-20T16:55:29;11.70;99.90
15916;DHT22;8057;47.830;-3.870;2023-12-20T16:59:59;11.80;99.90
15916;DHT22;8057;47.830;-3.870;2023-12-20T17:04:26;11.80;99.90
15916;DHT22;8057;47.830;-3.870;2023-12-20T17:08:54;11.70;99.90
15916;DHT22;8057;47.830;-3.870;2023-12-20T17:13:22;11.70;99.90
15916;DHT22;8057;47.830;-3.870;2023-12-20T17:17:51;11.60;99.90
15916;DHT22;8057;47.830;-3.870;2023-12-20T17:22:19;11.50;99.90
15916;DHT22;8057;47.830;-3.870;2023-12-20T17:26:46;11.50;99.90
15916;DHT22;8057;47.830;-3.870;2023-12-20T17:31:14;11.40;99.90
15916;DHT22;8057;47.830;-3.870;2023-12-20T17:35:43;11.30;99.90
15916;DHT22;8057;47.830;-3.870;2023-12-20T17:40:13;11.40;99.90
15916;DHT22;8057;47.830;-3.870;2023-12-20T17:44:41;11.40;99.90
15916;DHT22;8057;47.830;-3.870;2023-12-20T17:49:09;11.50;99.90
15916;DHT22;8057;47.830;-3.870;2023-12-20T17:53:38;11.60;99.90
15916;DHT22;8057;47.830;-3.870;2023-12-20T17:58:05;11.50;99.90
15916;DHT22;8057;47.830;-3.870;2023-12-20T18:02:33;11.40;99.90
15916;DHT22;8057;47.830;-3.870;2023-12-20T18:07:01;11.40;99.90
15916;DHT22;8057;47.830;-3.870;2023-12-20T18:11:30;11.40;99.90
15916;DHT22;8057;47.830;-3.870;2023-12-20T18:15:57;11.30;99.90
15916;DHT22;8057;47.830;-3.870;2023-12-20T18:20:25;11.30;99.90
15916;DHT22;8057;47.830;-3.870;2023-12-20T18:24:53;11.30;99.90
15916;DHT22;8057;47.830;-3.870;2023-12-20T18:29:23;11.30;99.90
15916;DHT22;8057;47.830;-3.870;2023-12-20T18:33:51;11.30;99.90
15916;DHT22;8057;47.830;-3.870;2023-12-20T18:38:18;11.30;99.90
15916;DHT22;8057;47.830;-3.870;2023-12-20T18:42:47;11.30;99.90
15916;DHT22;8057;47.830;-3.870;2023-12-20T18:47:16;11.30;99.90
15916;DHT22;8057;47.830;-3.870;2023-12-20T18:51:44;11.30;99.90
15916;DHT22;8057;47.830;-3.870;2023-12-20T18:56:11;11.30;99.90
15916;DHT22;8057;47.830;-3.870;2023-12-20T19:00:39;11.30;99.90
15916;DHT22;8057;47.830;-3.870;2023-12-20T19:05:08;11.30;99.90
15916;DHT22;8057;47.830;-3.870;2023-12-20T19:09:39;11.30;99.90
15916;DHT22;8057;47.830;-3.870;2023-12-20T19:14:07;11.30;99.90
15916;DHT22;8057;47.830;-3.870;2023-12-20T19:18:37;11.30;99.90
15916;DHT22;8057;47.830;-3.870;2023-12-20T19:23:06;11.40;99.90
15916;DHT22;8057;47.830;-3.870;2023-12-20T19:27:36;11.30;99.90
15916;DHT22;8057;47.830;-3.870;2023-12-20T19:32:04;11.30;99.90
15916;DHT22;8057;47.830;-3.870;2023-12-20T19:36:32;11.30;99.90
15916;DHT22;8057;47.830;-3.870;2023-12-20T19:41:02;11.20;99.90
15916;DHT22;8057;47.830;-3.870;2023-12-20T19:45:29;11.20;99.90
15916;DHT22;8057;47.830;-3.870;2023-12-20T19:49:57;11.20;99.90
15916;DHT22;8057;47.830;-3.870;2023-12-20T19:54:24;11.10;99.90
15916;DHT22;8057;47.830;-3.870;2023-12-20T19:58:53;11.20;99.90
15916;DHT22;8057;47.830;-3.870;2023-12-20T20:03:21;11.20;99.90
15916;DHT22;8057;47.830;-3.870;2023-12-20T20:07:49;11.20;99.90
15916;DHT22;8057;47.830;-3.870;2023-12-20T20:12:17;11.20;99.90
15916;DHT22;8057;47.830;-3.870;2023-12-20T20:16:46;11.30;99.90
15916;DHT22;8057;47.830;-3.870;2023-12-20T20:21:15;11.30;99.90
15916;DHT22;8057;47.830;-3.870;2023-12-20T20:25:43;11.30;99.90
15916;DHT22;8057;47.830;-3.870;2023-12-20T20:30:12;11.30;99.90
15916;DHT22;8057;47.830;-3.870;2023-12-20T20:34:41;11.40;99.90
15916;DHT22;8057;47.830;-3.870;2023-12-20T20:39:09;11.40;99.90
15916;DHT22;8057;47.830;-3.870;2023-12-20T20:43:38;11.50;99.90
15916;DHT22;8057;47.830;-3.870;2023-12-20T20:48:07;11.50;99.90
15916;DHT22;8057;47.830;-3.870;2023-12-20T20:52:53;11.50;99.90
15916;DHT22;8057;47.830;-3.870;2023-12-20T20:57:21;11.60;99.90
15916;DHT22;8057;47.830;-3.870;2023-12-20T21:01:49;11.60;99.90
15916;DHT22;8057;47.830;-3.870;2023-12-20T21:06:16;11.60;99.90
15916;DHT22;8057;47.830;-3.870;2023-12-20T21:10:46;11.50;99.90
15916;DHT22;8057;47.830;-3.870;2023-12-20T21:15:15;11.60;99.90
15916;DHT22;8057;47.830;-3.870;2023-12-20T21:19:43;11.50;99.90
15916;DHT22;8057;47.830;-3.870;2023-12-20T21:24:12;11.60;99.90
15916;DHT22;8057;47.830;-3.870;2023-12-20T21:28:42;11.70;99.90
15916;DHT22;8057;47.830;-3.870;2023-12-20T21:33:10;11.70;99.90
15916;DHT22;8057;47.830;-3.870;2023-12-20T21:37:37;11.70;99.90
15916;DHT22;8057;47.830;-3.870;2023-12-20T21:42:07;11.70;99.90
15916;DHT22;8057;47.830;-3.870;2023-12-20T21:46:37;11.80;99.90
15916;DHT22;8057;47.830;-3.870;2023-12-20T21:51:07;11.80;99.90
15916;DHT22;8057;47.830;-3.870;2023-12-20T21:55:35;11.80;99.90
15916;DHT22;8057;47.830;-3.870;2023-12-20T22:00:04;11.80;99.90
15916;DHT22;8057;47.830;-3.870;2023-12-20T22:04:35;11.90;99.90
15916;DHT22;8057;47.830;-3.870;2023-12-20T22:09:03;11.90;99.90
15916;DHT22;8057;47.830;-3.870;2023-12-20T22:13:30;11.90;99.90
15916;DHT22;8057;47.830;-3.870;2023-12-20T22:17:59;11.80;99.90
15916;DHT22;8057;47.830;-3.870;2023-12-20T22:22:28;11.80;99.90
15916;DHT22;8057;47.830;-3.870;2023-12-20T22:26:56;11.90;99.90
15916;DHT22;8057;47.830;-3.870;2023-12-20T22:31:26;11.90;99.90
15916;DHT22;8057;47.830;-3.870;2023-12-20T22:35:54;11.90;99.90
15916;DHT22;8057;47.830;-3.870;2023-12-20T22:40:24;11.90;99.90
15916;DHT22;8057;47.830;-3.870;2023-12-20T22:44:52;12.00;99.90
15916;DHT22;8057;47.830;-3.870;2023-12-20T22:49:21;12.00;99.90
15916;DHT22;8057;47.830;-3.870;2023-12-20T22:53:49;12.00;99.90
15916;DHT22;8057;47.830;-3.870;2023-12-20T22:58:19;12.00;99.90
15916;DHT22;8057;47.830;-3.870;2023-12-20T23:02:47;12.00;99.90
15916;DHT22;8057;47.830;-3.870;2023-12-20T23:07:15;12.10;99.90
15916;DHT22;8057;47.830;-3.870;2023-12-20T23:11:42;12.00;99.90
15916;DHT22;8057;47.830;-3.870;2023-12-20T23:16:15;12.00;99.90
15916;DHT22;8057;47.830;-3.870;2023-12-20T23:20:44;12.00;99.90
15916;DHT22;8057;47.830;-3.870;2023-12-20T23:25:12;12.00;99.90
15916;DHT22;8057;47.830;-3.870;2023-12-20T23:29:41;12.10;99.90
15916;DHT22;8057;47.830;-3.870;2023-12-20T23:34:10;12.10;99.90
15916;DHT22;8057;47.830;-3.870;2023-12-20T23:38:40;12.20;99.90
15916;DHT22;8057;47.830;-3.870;2023-12-20T23:43:07;12.20;99.90
15916;DHT22;8057;47.830;-3.870;2023-12-20T23:47:35;12.20;99.90
15916;DHT22;8057;47.830;-3.870;2023-12-20T23:52:05;12.20;99.90
15916;DHT22;8057;47.830;-3.870;2023-12-20T23:56:35;12.20;99.90
